Flight Track Log - Related Links

Times and Time Zones

All times are in EDT time to prevent confusion due to time zone crossing. See the N66SG flight status page for this flight to view local times or setup timezone preferences in your user account.

Time Position Orientation Groundspeed Altitude Reporting Facility
EDT Latitude Longitude Course Direction KTS MPH feet Rate Location/Type
Sat 11:02:32 PM 36.2000 -86.8833 15° North 160 184 1,000  Level Nashville TRACON
Sat 11:03:32 PM 36.2500 -86.8667 15° North 202 232 4,100 3,000 Climbing Nashville TRACON
Sat 11:04:26 PM 36.3000 -86.8333 28° Northeast 231 266 6,700 3,158 Climbing Nashville TRACON
Sat 11:05:26 PM 36.3500 -86.8000 28° Northeast 225 259 10,100 2,940 Climbing Nashville TRACON
Sat 11:06:55 PM 36.4353 -86.7483 26° Northeast 223 257 14,000 2,554 Climbing Memphis Center
Sat 11:07:54 PM 36.5069 -86.7014 28° Northeast 247 284 16,400 2,300 Climbing Memphis Center
Sat 11:08:55 PM 36.5867 -86.6461 29° Northeast 291 335 18,600 2,200 Climbing Memphis Center
Sat 11:09:54 PM 36.6703 -86.5878 29° Northeast 325 374 20,800 2,205 Climbing Memphis Center
Sat 11:11:41 PM 36.8233 -86.4833 29° Northeast 371 427 24,700 2,084 Climbing Indianapolis Center
Sat 11:12:41 PM 36.9169 -86.4169 30° Northeast 379 436 26,600 1,750 Climbing Indianapolis Center
Sat 11:13:41 PM 37.0175 -86.3464 29° Northeast 404 465 28,200 1,636 Climbing Indianapolis Center
Sat 11:14:42 PM 37.1222 -86.2728 29° Northeast 420 483 29,900 1,488 Climbing Indianapolis Center
Sat 11:15:42 PM 37.2314 -86.1975 29° Northeast 437 503 31,200 1,300 Climbing Indianapolis Center
Sat 11:16:42 PM 37.3444 -86.1169 30° Northeast 457 526 32,500 1,240 Climbing Indianapolis Center
Sat 11:17:43 PM 37.4614 -86.0347 29° Northeast 472 543 33,700 1,140 Climbing Indianapolis Center
Sat 11:18:43 PM 37.5656 -85.9625 29° Northeast 483 556 34,800 1,190 Climbing Indianapolis Center
Sat 11:19:44 PM 37.7089 -85.8606 29° Northeast 491 565 36,100 1,140 Climbing Indianapolis Center
Sat 11:20:44 PM 37.8319 -85.7722 30° Northeast 504 580 37,100 1,000 Climbing Indianapolis Center
Sat 11:21:44 PM 37.9586 -85.6819 29° Northeast 519 597 38,100 1,041 Climbing Indianapolis Center
Sat 11:22:45 PM 38.0856 -85.5903 30° Northeast 524 603 39,200 1,190 Climbing Indianapolis Center
Sat 11:23:45 PM 38.2178 -85.5089 26° Northeast 527 606 40,500 900 Climbing Indianapolis Center
Sat 11:24:45 PM 38.3506 -85.4294 25° Northeast 525 604 41,000 248 Climbing Indianapolis Center
Sat 11:25:46 PM 38.4869 -85.3453 26° Northeast 541 623 41,000  Level Indianapolis Center
Sat 11:26:46 PM 38.6314 -85.2817 19° North 548 631 41,000  Level Indianapolis Center
Sat 11:27:46 PM 38.7744 -85.2372 14° North 547 629 41,000  Level Indianapolis Center
Sat 11:28:47 PM 38.9206 -85.1894 14° North 544 626 41,000  Level Indianapolis Center
Sat 11:29:47 PM 39.0658 -85.1431 14° North 541 623 41,000  Level Indianapolis Center
Sat 11:30:47 PM 39.2064 -85.0947 15° North 530 610 41,000  Level Indianapolis Center
Sat 11:31:47 PM 39.3472 -85.0486 14° North 526 605 41,000  Level Indianapolis Center
Sat 11:32:48 PM 39.4836 -85.0044 14° North 515 593 41,000  Level Indianapolis Center
Sat 11:33:48 PM 39.6183 -84.9592 15° North 506 582 41,000  Level Indianapolis Center
Sat 11:34:48 PM 39.7542 -84.9139 14° North 506 582 41,000  Level Indianapolis Center
Sat 11:35:48 PM 39.9081 -84.8628 14° North 512 589 41,000 -298 Level Indianapolis Center
Sat 11:36:49 PM 40.0464 -84.8150 15° North 510 587 40,400 -1,438 Descending Indianapolis Center
Sat 11:37:49 PM 40.1864 -84.7681 14° North 512 589 38,100 -2,350 Descending Indianapolis Center
Sat 11:38:49 PM 40.3283 -84.7189 15° North 521 600 35,700 -2,380 Descending Indianapolis Center
Sat 11:39:50 PM 40.4567 -84.6744 15° North 482 555 33,300 -2,231 Descending Indianapolis Center
Sat 11:40:50 PM 40.5828 -84.6308 15° North 467 537 31,200 -1,950 Descending Indianapolis Center
Sat 11:41:50 PM 40.6842 -84.5967 14° North 453 521 29,400 -1,850 Descending Indianapolis Center
Sat 11:42:50 PM 40.8047 -84.5539 15° North 445 512 27,500 -1,785 Descending Indianapolis Center
Sat 11:43:51 PM 40.9236 -84.5125 15° North 440 506 25,800 -1,736 Descending Indianapolis Center
Sat 11:44:51 PM 41.0408 -84.4722 15° North 432 497 24,000 -1,850 Descending Indianapolis Center
Sat 11:45:51 PM 41.1553 -84.4319 15° North 425 489 22,100 -1,950 Descending Indianapolis Center
Sat 11:46:51 PM 41.2669 -84.3925 15° North 413 475 20,100 -2,050 Descending Indianapolis Center
Sat 11:47:51 PM 41.3808 -84.3519 15° North 392 451 18,000 -1,884 Descending Indianapolis Center
Sat 11:48:52 PM 41.4850 -84.3158 15° North 384 442 16,300 -1,607 Descending Indianapolis Center
Sat 11:49:43 PM 41.5664 -84.2883 14° North 382 440 15,000 -1,892 Descending Cleveland Center
Sat 11:50:43 PM 41.6656 -84.2525 15° North 368 423 12,800 -1,950 Descending Cleveland Center
Sat 11:51:43 PM 41.7564 -84.2214 14° North 344 396 11,100 -1,250 Descending Cleveland Center
Sat 11:52:43 PM 41.8386 -84.1928 15° North 319 367 10,300 -550 Descending Cleveland Center
Sat 11:53:43 PM 41.9167 -84.1636 16° North 302 348 10,000 -150 Descending Cleveland Center
Sat 11:54:43 PM 41.9925 -84.1344 16° North 290 334 10,000  Level Cleveland Center
Sat 11:55:43 PM 42.0708 -84.0994 18° North 284 327 10,000 -150 Level Cleveland Center
Sat 11:56:43 PM 42.1411 -84.0503 27° Northeast 284 327 9,700 -542 Descending Cleveland Center
Sat 11:58:07 PM 42.2217 -83.9367 46° Northeast 290 334 8,700 -703 Descending Cleveland Center
Sat 11:59:08 PM 42.2778 -83.8639 44° Northeast 290 334 8,000 -703 Descending Cleveland Center
Sun 12:00:15 AM 42.3408 -83.7772 45° Northeast 284 327 7,200 -803 Descending Cleveland Center
Sun 12:01:15 AM 42.3928 -83.7011 47° Northeast 272 313 6,300 -942 Descending Cleveland Center
Sun 12:02:16 AM 42.4447 -83.6306 45° Northeast 268 308 5,300 -991 Descending Cleveland Center
Sun 12:03:10 AM 42.4925 -83.5653 45° Northeast 264 304 4,400 -1,000 Descending Cleveland Center

Login

Don't have an account? Register now (free) for customized features, flight alerts, and more!